Airfield :
LOGIN :

Register | Disclaimer

   EN    FR    IT 

 










Legend :    VFR   Marginal VFR   IFR   Intensive IFR   Very Intensive IFR
Visi :
Ceiling :
>= 8 km
>= 3000ft
5 to 8 km
1000 to 3000 ft
1500m to 5 km
500 to 1000 ft
800 to 1500m
200 to 500 ft
< 800m
< 200 ft
Symbols :   Thunderstorms  Fog  Heavy snow  Heavy precipitations  Wind > 20 kt
SIGMETs :     Misc.  Thunderstorms  Icing  Turbulence  Mountain Waves  Volcanic Ashes






- Airport Elevation : 135 ft
- IATA code : EDI


EGPH - Edinburgh

CURRENT METAR :
  • 240350Z 24015KT 9999 SCT011 BKN041 07/07 Q1019

EXPIRED METARs :
  • 240320Z 24014KT 9999 BKN011 08/07 Q1019
  • 240250Z 24016KT 6000 -RADZ BKN009 08/07 Q1019
  • 240220Z 24017KT 9000 -RADZ OVC010 08/07 Q1019
  • 240150Z 23015KT 9999 BKN008 OVC033 08/07 Q1020
  • 240120Z 24016KT 9999 BKN009 08/07 Q1020

TAF AMD TAF EGPH
Valid from the 24 at 03:00 until the 25 at 00:00 UTC


240358Z 2403/2424 25012KT 9999 SCT008 BKN016
TEMPO 2403/2424 6000 -RADZ BKN008
PROB40
TEMPO 2403/2424 4000 RADZ BKN004
ATIS : +44 131 339 2823



MET'MAP, your aeronautical weather chart ! - Copyright ORBIFLY December 2007 - Disclaimer

ORBIFLY MET'MAP TEAM :

Programming & Development : Alexandra Zaïnal
Concept & original design : Baudouin d'Aumeries
Assistance for programming : Marc-Olivier Méhu
Technical & hardware support : Manuel Goepfert

Contact : metmap@orbifly.com




SOURCES & CREDITS :

   NOAA